Have a Safe July 4th! 

Flight Track Log - Related Links

Times and Time Zones

All times are in EDT time to prevent confusion due to time zone crossing. See the EJM826 flight status page for this flight to view local times or setup timezone preferences in your user account.

Time Position Orientation Groundspeed Altitude Reporting Facility
EDT Latitude Longitude Course Direction KTS MPH feet Rate Location/Type
Wed 05:00:08 PM 32.7333 -117.2167 287° West 149 171 1,600  Level Southern California TRACON
Wed 05:01:08 PM 32.7500 -117.2833 287° West 210 242 3,400 1,967 Climbing Southern California TRACON
Wed 05:02:10 PM 32.7294 -117.3253 240° Southwest 219 252 5,600 2,129 Climbing Los Angeles Center
Wed 05:03:12 PM 32.6803 -117.2861 146° Southeast 214 246 7,800 1,935 Climbing Los Angeles Center
Wed 05:04:14 PM 32.6447 -117.2189 122° Southeast 256 295 9,600 1,597 Climbing Los Angeles Center
Wed 05:05:16 PM 32.6331 -117.1244 98° East 291 335 11,100 1,790 Climbing Los Angeles Center
Wed 05:06:18 PM 32.6172 -117.0044 99° East 308 354 13,300 1,935 Climbing Los Angeles Center
Wed 05:07:20 PM 32.6028 -116.9019 99° East 315 362 15,100 1,790 Climbing Los Angeles Center
Wed 05:08:22 PM 32.6258 -116.7986 75° East 333 383 17,000 1,597 Climbing Los Angeles Center
Wed 05:09:24 PM 32.6386 -116.6925 82° East 332 382 18,400 1,452 Climbing Los Angeles Center
Wed 05:10:26 PM 32.6478 -116.5819 84° East 337 388 20,000 1,488 Climbing Los Angeles Center
Wed 05:11:29 PM 32.6611 -116.4453 83° East 350 403 21,500 1,296 Climbing Los Angeles Center
Wed 05:12:31 PM 32.6725 -116.3272 83° East 364 419 22,700 1,210 Climbing Los Angeles Center
Wed 05:13:33 PM 32.6839 -116.2075 84° East 370 426 24,000 1,161 Climbing Los Angeles Center
Wed 05:14:35 PM 32.6961 -116.0839 83° East 380 437 25,100 1,210 Climbing Los Angeles Center
Wed 05:15:37 PM 32.7103 -115.9331 84° East 385 443 26,500 1,258 Climbing Los Angeles Center
Wed 05:16:39 PM 32.7214 -115.8047 84° East 390 449 27,700 1,065 Climbing Los Angeles Center
Wed 05:17:41 PM 32.7331 -115.6767 84° East 391 450 28,700 919 Climbing Los Angeles Center
Wed 05:18:43 PM 32.7444 -115.5456 84° East 398 458 29,600 912 Climbing Los Angeles Center
Wed 05:19:46 PM 32.7511 -115.4125 87° East 404 465 30,600 864 Climbing Los Angeles Center
Wed 05:20:48 PM 32.7528 -115.2781 89° East 407 468 31,400 774 Climbing Los Angeles Center
Wed 05:21:50 PM 32.7597 -115.1122 87° East 417 480 32,200 1,016 Climbing Los Angeles Center
Wed 05:22:52 PM 32.7625 -114.9719 89° East 424 488 33,500 1,258 Climbing Los Angeles Center
Wed 05:23:54 PM 32.7653 -114.8358 89° East 417 480 34,800 1,161 Climbing Los Angeles Center
Wed 05:24:56 PM 32.7675 -114.6997 89° East 414 476 35,900 1,113 Climbing Los Angeles Center
Wed 05:25:58 PM 32.7658 -114.5669 91° East 406 467 37,100 1,113 Climbing Los Angeles Center
Wed 05:27:00 PM 32.7686 -114.4075 89° East 404 465 38,200 968 Climbing Los Angeles Center
Wed 05:28:02 PM 32.7711 -114.2747 89° East 403 464 39,100 1,056 Climbing Los Angeles Center
Wed 05:29:05 PM 32.7714 -114.1425 90° East 402 463 40,400 864 Climbing Los Angeles Center
Wed 05:30:07 PM 32.7742 -114.0122 89° East 396 456 40,900 290 Climbing Los Angeles Center
Wed 05:31:09 PM 32.7878 -113.8764 83° East 408 470 41,000 48 Climbing Los Angeles Center
Wed 05:32:11 PM 32.8108 -113.7336 79° East 432 497 41,000  Level Los Angeles Center
Wed 05:33:14 PM 32.8356 -113.5586 80° East 449 517 41,000  Level Los Angeles Center
Wed 05:34:15 PM 32.8567 -113.4092 80° East 457 526 41,000  Level Los Angeles Center
Wed 05:35:17 PM 32.8778 -113.2686 80° East 459 528 41,000  Level Los Angeles Center
Wed 05:36:19 PM 32.8986 -113.1167 81° East 463 533 41,000  Level Los Angeles Center
Wed 05:37:44 PM 32.9272 -112.9033 81° East 462 532 41,000  Level Albuquerque Center
Wed 05:38:46 PM 32.9464 -112.7531 81° East 459 528 41,000  Level Albuquerque Center
Wed 05:39:48 PM 32.9378 -112.6047 94° East 451 519 41,000  Level Albuquerque Center
Wed 05:40:50 PM 32.9108 -112.4314 100° East 445 512 41,000  Level Albuquerque Center
Wed 05:41:52 PM 32.8881 -112.2872 101° East 444 511 41,000  Level Albuquerque Center
Wed 05:42:53 PM 32.8683 -112.1569 100° East 441 507 41,000  Level Albuquerque Center
Wed 05:43:55 PM 32.8469 -112.0153 100° East 439 505 41,000  Level Albuquerque Center
Wed 05:44:57 PM 32.8200 -111.8433 101° East 443 510 41,000  Level Albuquerque Center
Wed 05:45:59 PM 32.7981 -111.7017 100° East 440 506 41,000  Level Albuquerque Center
Wed 05:47:01 PM 32.7758 -111.5592 100° East 441 507 41,000  Level Albuquerque Center
Wed 05:48:03 PM 32.7539 -111.4164 100° East 441 507 41,000  Level Albuquerque Center
Wed 05:49:05 PM 32.7300 -111.2775 102° East 435 501 41,000  Level Albuquerque Center
Wed 05:50:06 PM 32.7025 -111.1086 101° East 435 501 41,000  Level Albuquerque Center
Wed 05:51:08 PM 32.6792 -110.9661 101° East 441 507 41,000  Level Albuquerque Center
Wed 05:52:10 PM 32.6561 -110.8258 101° East 438 504 41,000  Level Albuquerque Center
Wed 05:53:12 PM 32.6331 -110.6853 101° East 436 502 41,000  Level Albuquerque Center
Wed 05:54:14 PM 32.6097 -110.5458 101° East 433 498 41,000  Level Albuquerque Center
Wed 05:55:16 PM 32.5864 -110.4069 101° East 432 497 41,000  Level Albuquerque Center
Wed 05:56:18 PM 32.5594 -110.2508 102° East 430 495 41,000  Level Albuquerque Center
Wed 05:57:20 PM 32.5364 -110.1136 101° East 427 491 41,000  Level Albuquerque Center
Wed 05:58:21 PM 32.5122 -109.9708 101° East 438 504 41,000  Level Albuquerque Center
Wed 05:59:23 PM 32.4864 -109.8272 102° East 445 512 41,000  Level Albuquerque Center
Wed 06:00:25 PM 32.4544 -109.6533 102° East 453 521 41,000  Level Albuquerque Center
Wed 06:01:27 PM 32.4292 -109.5100 102° East 451 519 41,000  Level Albuquerque Center
Wed 06:02:28 PM 32.4039 -109.3678 102° East 446 513 41,000  Level Albuquerque Center
Wed 06:03:30 PM 32.3786 -109.2258 102° East 445 512 41,000  Level Albuquerque Center
Wed 06:04:32 PM 32.3500 -109.0853 104° East 444 511 41,000  Level Albuquerque Center
Wed 06:05:34 PM 32.3153 -108.9183 104° East 441 507 41,000  Level Albuquerque Center
Wed 06:06:36 PM 32.2903 -108.7783 102° East 439 505 41,000  Level Albuquerque Center
Wed 06:07:37 PM 32.2667 -108.6372 101° East 441 507 41,000  Level Albuquerque Center
Wed 06:08:39 PM 32.2400 -108.4961 103° East 443 510 41,000  Level Albuquerque Center
Wed 06:09:41 PM 32.2122 -108.3406 102° East 441 507 41,000  Level Albuquerque Center
Wed 06:10:43 PM 32.1850 -108.2000 103° East 441 507 41,000  Level Albuquerque Center
Wed 06:11:45 PM 32.1603 -108.0581 102° East 443 510 41,000  Level Albuquerque Center
Wed 06:12:46 PM 32.1333 -107.9175 103° East 443 510 41,000  Level Albuquerque Center
Wed 06:13:48 PM 32.1072 -107.7767 102° East 442 509 41,000  Level Albuquerque Center
Wed 06:14:50 PM 32.0806 -107.6356 103° East 443 510 41,000  Level Albuquerque Center
Wed 06:15:52 PM 32.0489 -107.4664 102° East 444 511 41,000  Level Albuquerque Center
Wed 06:16:53 PM 32.0217 -107.3264 103° East 443 510 41,000  Level Albuquerque Center
Wed 06:17:55 PM 31.9944 -107.1850 103° East 445 512 41,000  Level Albuquerque Center
Wed 06:18:57 PM 31.9686 -107.0456 102° East 442 509 41,000  Level Albuquerque Center
Wed 06:19:59 PM 31.9406 -106.9050 103° East 444 511 41,000  Level Albuquerque Center
Wed 06:21:01 PM 31.9075 -106.7378 103° East 442 509 41,000  Level Albuquerque Center
Wed 06:22:02 PM 31.8800 -106.5983 103° East 441 507 41,000  Level Albuquerque Center
Wed 06:23:04 PM 31.8506 -106.4569 104° East 445 512 41,000  Level Albuquerque Center
Wed 06:24:06 PM 31.8217 -106.3167 104° East 444 511 41,000  Level Albuquerque Center
Wed 06:25:08 PM 31.7908 -106.1731 104° East 455 524 41,000  Level Albuquerque Center
Wed 06:26:10 PM 31.7550 -106.0367 107° East 439 505 41,000  Level Albuquerque Center
Wed 06:27:11 PM 31.7211 -105.8992 106° East 439 505 41,000  Level Albuquerque Center
Wed 06:28:13 PM 31.6786 -105.7331 107° East 442 509 41,000  Level Albuquerque Center
Wed 06:29:15 PM 31.6439 -105.5950 106° East 441 507 41,000  Level Albuquerque Center
Wed 06:30:17 PM 31.6094 -105.4572 106° East 440 506 41,000  Level Albuquerque Center
Wed 06:31:19 PM 31.5742 -105.3194 107° East 440 506 41,000  Level Albuquerque Center
Wed 06:32:21 PM 31.5397 -105.1853 107° East 432 497 41,000  Level Albuquerque Center
Wed 06:33:22 PM 31.5064 -105.0478 106° East 435 501 41,000  Level Albuquerque Center
Wed 06:34:25 PM 31.4703 -104.9092 107° East 441 507 41,000  Level Albuquerque Center
Wed 06:35:26 PM 31.4272 -104.7433 107° East 442 509 41,000  Level Albuquerque Center
Wed 06:36:28 PM 31.3914 -104.6058 107° East 440 506 41,000  Level Albuquerque Center
Wed 06:37:30 PM 31.3558 -104.4669 107° East 442 509 41,000  Level Albuquerque Center
Wed 06:38:32 PM 31.3194 -104.3300 107° East 440 506 41,000  Level Albuquerque Center
Wed 06:39:33 PM 31.2833 -104.1917 107° East 443 510 41,000  Level Albuquerque Center
Wed 06:40:35 PM 31.2467 -104.0542 107° East 444 511 41,000  Level Albuquerque Center
Wed 06:41:37 PM 31.2094 -103.9164 107° East 444 511 41,000  Level Albuquerque Center
Wed 06:42:39 PM 31.1656 -103.7625 108° East 444 511 41,000  Level Albuquerque Center
Wed 06:43:40 PM 31.1275 -103.6242 108° East 448 516 41,000  Level Albuquerque Center
Wed 06:44:42 PM 31.0889 -103.4861 108° East 448 516 41,000  Level Albuquerque Center
Wed 06:45:44 PM 31.0511 -103.3492 108° East 447 514 41,000  Level Albuquerque Center
Wed 06:46:45 PM 31.0147 -103.2147 107° East 440 506 41,000  Level Albuquerque Center
Wed 06:47:47 PM 30.9717 -103.0564 108° East 432 497 41,000  Level Albuquerque Center
Wed 06:48:49 PM 30.9358 -102.9228 107° East 433 498 41,000  Level Albuquerque Center
Wed 06:49:50 PM 30.9003 -102.7861 107° East 440 506 41,000  Level Albuquerque Center
Wed 06:50:52 PM 30.8653 -102.6503 107° East 441 507 41,000  Level Albuquerque Center
Wed 06:51:54 PM 30.8300 -102.5136 107° East 443 510 41,000  Level Albuquerque Center
Wed 06:52:55 PM 30.7950 -102.3772 107° East 445 512 41,000  Level Albuquerque Center
Wed 06:53:28 PM 30.7731 -102.2950 107° East 444 511 41,000  Level Houston Center
Wed 06:54:30 PM 30.7364 -102.1586 107° East 444 511 41,000  Level Houston Center
Wed 06:55:32 PM 30.6936 -101.9936 107° East 446 513 41,000  Level Houston Center
Wed 06:56:34 PM 30.6569 -101.8564 107° East 447 514 41,000  Level Houston Center
Wed 06:57:37 PM 30.6208 -101.7200 107° East 446 513 41,000  Level Houston Center
Wed 06:58:39 PM 30.5844 -101.5833 107° East 442 509 41,000  Level Houston Center
Wed 06:59:41 PM 30.5481 -101.4475 107° East 441 507 41,000  Level Houston Center
Wed 07:00:43 PM 30.5108 -101.3122 108° East 441 507 41,000  Level Houston Center
Wed 07:01:45 PM 30.4669 -101.1492 107° East 441 507 41,000  Level Houston Center
Wed 07:02:47 PM 30.4297 -101.0133 108° East 443 510 41,000  Level Houston Center
Wed 07:03:49 PM 30.3922 -100.8797 108° East 436 502 41,000  Level Houston Center
Wed 07:04:51 PM 30.3558 -100.7442 107° East 439 505 41,000  Level Houston Center
Wed 07:05:53 PM 30.3186 -100.6092 108° East 439 505 41,000  Level Houston Center
Wed 07:06:55 PM 30.2819 -100.4736 107° East 440 506 41,000 -1,016 Level Houston Center
Wed 07:07:57 PM 30.2447 -100.3389 108° East 437 503 38,900 -2,613 Descending Houston Center
Wed 07:08:59 PM 30.2017 -100.1756 107° East 435 501 35,600 -2,952 Descending Houston Center
Wed 07:10:01 PM 30.1611 -100.0397 109° East 438 504 32,800 -2,806 Descending Houston Center
Wed 07:11:03 PM 30.1222 -99.9072 109° East 434 499 29,800 -2,855 Descending Houston Center
Wed 07:12:05 PM 30.0844 -99.7747 108° East 434 499 26,900 -2,806 Descending Houston Center
Wed 07:13:07 PM 30.0461 -99.6414 108° East 437 503 24,000 -2,806 Descending Houston Center
Wed 07:14:09 PM 30.0086 -99.5133 109° East 425 489 21,100 -2,806 Descending Houston Center
Wed 07:15:11 PM 29.9747 -99.3900 108° East 409 471 18,200 -3,000 Descending Houston Center
Wed 07:16:09 PM 29.9358 -99.2647 110° East 385 443 15,100 -3,048 Descending Houston Center
Wed 07:17:15 PM 29.8961 -99.1422 110° East 365 420 11,900 -2,391 Descending Houston Center
Wed 07:18:17 PM 29.8425 -99.0408 121° Southeast 356 410 10,000 -1,254 Descending Houston Center
Wed 07:19:29 PM 29.7897 -98.9347 120° Southeast 299 344 9,100 -1,306 Descending Houston Center
Wed 07:20:21 PM 29.7564 -98.8644 119° Southeast 290 334 7,300 -1,983 Descending Houston Center
Wed 07:21:30 PM 29.7128 -98.7778 120° Southeast 274 315 5,100 -1,597 Descending Houston Center
Wed 07:22:25 PM 29.6778 -98.7072 120° Southeast 270 311 4,000 -923 Descending Houston Center
Wed 07:23:27 PM 29.6444 -98.6406 120° Southeast 247 284 3,300 -629 Descending Houston Center
Wed 07:24:29 PM 29.6136 -98.5781 120° Southeast 214 246 2,700 -629 Descending Houston Center
Wed 07:25:31 PM 29.5828 -98.5367 131° Southeast 176 203 2,000 -683 Descending Houston Center
Wed 07:26:32 PM 29.5592 -98.5050 131° Southeast 141 162 1,300 -585 Descending Houston Center
Wed 07:27:34 PM 29.5392 -98.4783 131° Southeast 127 146 800 -484 Descending Houston Center
Wed 07:29:00 PM 29.5333 -98.4667 139° Southeast  Level FlightAware Approximate
Wed 07:36:00 PM 29.5340 -98.4691 139° Southeast  Level Estimated
Wed 07:37:00 PM 29.5333 -98.4667 139° Southeast  Level FlightAware Approximate

Login

Don't have an account? Register now (free) for customized features, flight alerts, and more!